createdAt,value
2017-11-14T00:02:38.923Z,-0.20
2017-11-14T00:05:44.449Z,-0.40
2017-11-14T00:08:49.830Z,-0.40
2017-11-14T00:11:55.405Z,-0.20
2017-11-14T00:15:00.985Z,-0.30
2017-11-14T00:18:06.986Z,-0.20
2017-11-14T00:21:12.107Z,-0.20
2017-11-14T00:24:17.909Z,-0.20
2017-11-14T00:27:22.933Z,-0.20
2017-11-14T00:30:28.613Z,-0.30
2017-11-14T00:33:35.342Z,-0.40
2017-11-14T00:36:40.874Z,-0.20
2017-11-14T00:39:47.163Z,-0.30
2017-11-14T00:42:52.175Z,-0.30
2017-11-14T00:45:57.881Z,-0.20
2017-11-14T00:49:02.982Z,-0.20
2017-11-14T00:52:08.891Z,-0.20
2017-11-14T00:55:13.948Z,-0.30
2017-11-14T00:58:18.812Z,-0.30
2017-11-14T01:01:23.639Z,-0.50
2017-11-14T01:04:28.565Z,-0.50
2017-11-14T01:07:34.515Z,-0.40
2017-11-14T01:10:39.512Z,-0.50
2017-11-14T01:13:45.053Z,-0.50
2017-11-14T01:16:50.344Z,-0.50
2017-11-14T01:19:55.757Z,-0.60
2017-11-14T01:23:01.477Z,-0.70
2017-11-14T01:26:06.553Z,-0.60
2017-11-14T01:29:11.998Z,-0.70
2017-11-14T01:32:16.960Z,-0.60
2017-11-14T01:35:21.897Z,-0.40
2017-11-14T01:38:26.862Z,-0.20
2017-11-14T01:41:32.528Z,-0.20
2017-11-14T01:44:37.817Z,-0.10
2017-11-14T01:47:43.104Z,0.00
2017-11-14T01:50:48.789Z,0.10
2017-11-14T01:53:54.513Z,0.10
2017-11-14T01:57:00.340Z,0.20
2017-11-14T02:00:05.547Z,0.20
2017-11-14T02:03:10.745Z,0.20
2017-11-14T02:06:16.070Z,0.40
2017-11-14T02:09:22.527Z,0.40
2017-11-14T02:12:28.453Z,0.40
2017-11-14T02:15:33.422Z,0.50
2017-11-14T02:18:39.170Z,0.60
2017-11-14T02:21:45.337Z,0.60
2017-11-14T02:24:51.029Z,0.70
2017-11-14T02:27:59.648Z,0.90
2017-11-14T02:31:04.634Z,0.80
2017-11-14T02:34:10.161Z,0.80
2017-11-14T02:37:15.012Z,0.80
2017-11-14T02:40:20.844Z,1.10
2017-11-14T02:43:25.912Z,1.10
2017-11-14T02:46:31.380Z,1.00
2017-11-14T02:49:36.978Z,1.20
2017-11-14T02:52:42.878Z,1.20
2017-11-14T02:55:48.830Z,1.20
2017-11-14T02:58:54.549Z,1.20
2017-11-14T03:01:59.772Z,1.20
2017-11-14T03:05:05.935Z,1.30
2017-11-14T03:08:11.652Z,1.20
2017-11-14T03:11:17.424Z,1.40
2017-11-14T03:14:22.582Z,1.40
2017-11-14T03:17:29.438Z,1.40
2017-11-14T03:20:34.634Z,1.30
2017-11-14T03:23:39.621Z,1.40
2017-11-14T03:26:45.252Z,1.40
2017-11-14T03:29:50.244Z,1.40
2017-11-14T03:32:55.705Z,1.50
2017-11-14T03:36:01.054Z,1.60
2017-11-14T03:39:06.694Z,1.60
2017-11-14T03:42:11.754Z,1.50
2017-11-14T03:45:17.431Z,1.60
2017-11-14T03:48:22.788Z,1.70
2017-11-14T03:51:28.668Z,1.80
2017-11-14T03:54:33.837Z,1.70
2017-11-14T03:57:39.311Z,1.70
2017-11-14T04:00:44.824Z,1.70
2017-11-14T04:03:50.413Z,1.70
2017-11-14T04:06:55.383Z,1.60
2017-11-14T04:10:01.029Z,1.60
2017-11-14T04:13:06.603Z,1.70
2017-11-14T04:16:11.830Z,1.60
2017-11-14T04:19:17.336Z,1.70
2017-11-14T04:22:23.244Z,1.80
2017-11-14T04:25:28.641Z,1.80
2017-11-14T04:28:34.300Z,1.80
2017-11-14T04:31:39.413Z,1.80
2017-11-14T04:34:44.349Z,1.80
2017-11-14T04:37:49.516Z,1.90
2017-11-14T04:40:55.921Z,1.90
2017-11-14T04:44:00.893Z,1.90
2017-11-14T04:47:06.168Z,2.00
2017-11-14T04:50:11.828Z,1.70
2017-11-14T04:53:17.621Z,1.70
2017-11-14T04:56:22.739Z,1.80
2017-11-14T04:59:28.502Z,1.60
2017-11-14T05:02:34.049Z,1.60
2017-11-14T05:05:39.788Z,1.80
2017-11-14T05:08:47.881Z,1.70
2017-11-14T05:11:56.716Z,1.50
2017-11-14T05:15:04.026Z,1.50
2017-11-14T05:18:09.355Z,1.50
2017-11-14T05:21:20.218Z,1.70
2017-11-14T05:24:26.700Z,1.80
2017-11-14T05:27:32.110Z,1.80
2017-11-14T05:30:37.941Z,1.80
2017-11-14T05:33:47.082Z,1.80
2017-11-14T05:36:58.158Z,1.90
2017-11-14T05:40:03.901Z,2.00
2017-11-14T05:43:09.990Z,2.00
2017-11-14T05:46:16.809Z,2.00
2017-11-14T05:49:23.025Z,2.10
2017-11-14T05:52:28.737Z,2.10
2017-11-14T05:55:34.852Z,2.10
2017-11-14T05:58:40.228Z,2.20
2017-11-14T06:01:46.001Z,2.20
2017-11-14T06:04:52.333Z,2.20
2017-11-14T06:07:57.378Z,2.20
2017-11-14T06:11:02.947Z,2.20
2017-11-14T06:14:08.441Z,2.30
2017-11-14T06:17:13.751Z,2.30
2017-11-14T06:20:18.813Z,2.30
2017-11-14T06:23:24.153Z,2.30
2017-11-14T06:26:29.388Z,2.30
2017-11-14T06:29:35.046Z,2.40
2017-11-14T06:32:40.001Z,2.40
2017-11-14T06:35:44.649Z,2.40
2017-11-14T06:38:50.777Z,2.40
2017-11-14T06:41:56.321Z,2.30
2017-11-14T06:45:01.466Z,2.40
2017-11-14T06:48:07.828Z,2.40
2017-11-14T06:51:12.921Z,2.40
2017-11-14T06:54:18.542Z,2.40
2017-11-14T06:57:24.152Z,2.60
2017-11-14T07:00:29.813Z,2.50
2017-11-14T07:03:35.603Z,2.50
2017-11-14T07:06:41.342Z,2.50
2017-11-14T07:09:47.569Z,2.50
2017-11-14T07:12:52.497Z,2.50
2017-11-14T07:15:57.290Z,2.60
2017-11-14T07:19:02.630Z,2.70
2017-11-14T07:22:07.541Z,2.80
2017-11-14T07:25:13.160Z,2.90
2017-11-14T07:28:18.620Z,3.00
2017-11-14T07:31:24.481Z,2.80
2017-11-14T07:34:30.776Z,3.00
2017-11-14T07:37:35.742Z,3.10
2017-11-14T07:40:41.450Z,3.10
2017-11-14T07:43:46.798Z,3.20
2017-11-14T07:46:52.444Z,3.20
2017-11-14T07:49:58.179Z,3.50
2017-11-14T07:53:02.995Z,3.60
2017-11-14T07:56:08.390Z,3.60
2017-11-14T07:59:13.864Z,3.50
2017-11-14T08:02:19.337Z,3.60
2017-11-14T08:05:24.893Z,3.80
2017-11-14T08:08:30.053Z,4.00
2017-11-14T08:11:36.613Z,4.30
2017-11-14T08:14:42.220Z,4.30
2017-11-14T08:17:47.188Z,4.40
2017-11-14T08:20:52.668Z,4.60
2017-11-14T08:23:57.629Z,4.70
2017-11-14T08:27:02.758Z,4.90
2017-11-14T08:30:08.283Z,5.10
2017-11-14T08:33:13.305Z,4.90
2017-11-14T08:36:19.497Z,5.00
2017-11-14T08:39:24.746Z,4.90
2017-11-14T08:42:29.432Z,5.10
2017-11-14T08:45:34.953Z,5.20
2017-11-14T08:48:41.204Z,5.20
2017-11-14T08:51:46.613Z,5.10
2017-11-14T08:54:51.652Z,5.10
2017-11-14T08:57:57.349Z,5.10
2017-11-14T09:01:03.841Z,5.30
2017-11-14T09:04:09.487Z,5.50
2017-11-14T09:07:15.138Z,5.50
2017-11-14T09:10:21.605Z,5.60
2017-11-14T09:13:27.199Z,5.60
2017-11-14T09:16:33.018Z,5.80
2017-11-14T09:19:37.973Z,5.90
2017-11-14T09:22:44.297Z,6.10
2017-11-14T09:25:50.160Z,6.30
2017-11-14T09:28:55.926Z,6.30
2017-11-14T09:32:01.793Z,6.30
2017-11-14T09:35:07.885Z,6.60
2017-11-14T09:38:14.374Z,6.50
2017-11-14T09:41:20.093Z,6.50
2017-11-14T09:44:25.211Z,6.30
2017-11-14T09:47:30.939Z,6.50
2017-11-14T09:50:36.014Z,6.70
2017-11-14T09:53:41.600Z,6.80
2017-11-14T09:56:46.905Z,6.80
2017-11-14T09:59:51.709Z,7.00
2017-11-14T10:02:56.598Z,6.80
2017-11-14T10:06:01.834Z,6.90
2017-11-14T10:09:07.077Z,6.90
2017-11-14T10:12:12.896Z,7.10
2017-11-14T10:15:17.894Z,7.10
2017-11-14T10:18:22.768Z,7.20
2017-11-14T10:21:28.581Z,7.30
2017-11-14T10:24:33.982Z,7.30
2017-11-14T10:27:39.600Z,6.90
2017-11-14T10:30:44.522Z,6.80
2017-11-14T10:33:49.874Z,6.90
2017-11-14T10:36:54.909Z,7.10
2017-11-14T10:39:59.862Z,7.10
2017-11-14T10:43:05.683Z,7.10
2017-11-14T10:46:10.521Z,7.10
2017-11-14T10:49:16.136Z,7.20
2017-11-14T10:52:23.545Z,7.10
2017-11-14T10:55:30.912Z,6.80
2017-11-14T10:58:37.666Z,6.70
2017-11-14T11:01:42.841Z,6.60
2017-11-14T11:04:47.785Z,6.30
2017-11-14T11:07:53.869Z,6.60
2017-11-14T11:10:58.850Z,6.90
2017-11-14T11:14:05.574Z,7.10
2017-11-14T11:17:12.780Z,7.10
2017-11-14T11:20:17.594Z,7.10
2017-11-14T11:23:22.437Z,7.40
2017-11-14T11:26:28.090Z,7.50
2017-11-14T11:29:33.093Z,7.60
2017-11-14T11:32:38.358Z,7.90
2017-11-14T11:35:45.037Z,8.90
2017-11-14T11:38:50.407Z,9.00
2017-11-14T11:41:56.076Z,9.00
2017-11-14T11:45:01.481Z,9.00
2017-11-14T11:48:06.580Z,8.50
2017-11-14T11:51:12.189Z,8.40
2017-11-14T11:54:18.048Z,8.80
2017-11-14T11:57:25.529Z,8.60
2017-11-14T12:00:38.787Z,8.50
2017-11-14T12:03:46.711Z,8.30
2017-11-14T12:06:52.468Z,8.30
2017-11-14T12:09:59.073Z,8.30
2017-11-14T12:13:04.741Z,8.40
2017-11-14T12:16:10.168Z,8.20
2017-11-14T12:19:16.740Z,8.50
2017-11-14T12:22:23.057Z,8.60
2017-11-14T12:25:28.662Z,8.80
2017-11-14T12:28:33.389Z,8.80
2017-11-14T12:31:38.454Z,9.10
2017-11-14T12:34:43.290Z,8.90
2017-11-14T12:37:48.515Z,8.50
2017-11-14T12:40:53.795Z,8.20
2017-11-14T12:43:59.329Z,8.40
2017-11-14T12:47:04.253Z,8.30
2017-11-14T12:50:10.995Z,8.40
2017-11-14T12:53:16.725Z,8.50
2017-11-14T12:56:21.749Z,8.60
2017-11-14T12:59:28.953Z,8.60
2017-11-14T13:02:35.628Z,8.50
2017-11-14T13:05:40.996Z,8.50
2017-11-14T13:08:46.365Z,8.50
2017-11-14T13:11:53.305Z,8.80
2017-11-14T13:14:57.989Z,8.80
2017-11-14T13:18:05.188Z,8.80
2017-11-14T13:21:10.881Z,9.10
2017-11-14T13:24:17.992Z,8.90
2017-11-14T13:27:25.535Z,8.80
2017-11-14T13:30:30.875Z,8.80
2017-11-14T13:33:35.912Z,8.70
2017-11-14T13:36:41.708Z,8.70
2017-11-14T13:39:46.605Z,8.50
2017-11-14T13:42:51.570Z,8.20
2017-11-14T13:45:57.113Z,8.00
2017-11-14T13:49:03.675Z,8.00
2017-11-14T13:52:09.829Z,7.90
2017-11-14T13:55:15.409Z,8.00
2017-11-14T13:58:22.971Z,8.00
2017-11-14T14:01:30.097Z,8.00
2017-11-14T14:04:35.092Z,7.80
2017-11-14T14:07:40.881Z,7.80
2017-11-14T14:10:46.202Z,7.90
2017-11-14T14:13:52.268Z,7.70
2017-11-14T14:16:57.846Z,7.70
2017-11-14T14:20:03.400Z,7.80
2017-11-14T14:23:08.626Z,7.90
2017-11-14T14:26:14.428Z,7.80
2017-11-14T14:29:19.889Z,7.80
2017-11-14T14:32:25.374Z,7.90
2017-11-14T14:35:30.709Z,7.60
2017-11-14T14:38:36.581Z,7.60
2017-11-14T14:41:41.372Z,7.70
2017-11-14T14:44:46.468Z,7.70
2017-11-14T14:47:51.617Z,7.60
2017-11-14T14:50:57.841Z,7.50
2017-11-14T14:54:02.905Z,7.40
2017-11-14T14:57:08.361Z,7.50
2017-11-14T15:00:14.033Z,7.20
2017-11-14T15:03:20.263Z,7.20
2017-11-14T15:06:26.087Z,7.20
2017-11-14T15:09:31.754Z,7.00
2017-11-14T15:12:37.608Z,6.90
2017-11-14T15:15:43.126Z,6.80
2017-11-14T15:18:49.253Z,6.80
2017-11-14T15:21:55.768Z,6.70
2017-11-14T15:25:00.762Z,6.70
2017-11-14T15:28:06.702Z,6.70
2017-11-14T15:31:12.636Z,6.70
2017-11-14T15:34:18.265Z,6.60
2017-11-14T15:37:24.085Z,6.40
2017-11-14T15:40:28.944Z,6.30
2017-11-14T15:43:34.880Z,6.10
2017-11-14T15:46:40.561Z,5.90
2017-11-14T15:49:45.539Z,5.70
2017-11-14T15:52:51.993Z,5.60
2017-11-14T15:55:58.469Z,5.50
2017-11-14T15:59:04.493Z,5.30
2017-11-14T16:02:09.255Z,5.30
2017-11-14T16:05:14.800Z,5.40
2017-11-14T16:08:21.731Z,5.40
2017-11-14T16:11:27.755Z,5.30
2017-11-14T16:14:33.801Z,5.40
2017-11-14T16:17:39.582Z,5.30
2017-11-14T16:20:45.261Z,5.10
2017-11-14T16:23:50.784Z,4.90
2017-11-14T16:26:56.209Z,4.70
2017-11-14T16:30:02.934Z,4.40
2017-11-14T16:33:07.788Z,4.20
2017-11-14T16:36:12.652Z,4.00
2017-11-14T16:39:18.271Z,3.90
2017-11-14T16:42:24.722Z,3.80
2017-11-14T16:45:30.142Z,3.70
2017-11-14T16:48:37.738Z,3.50
2017-11-14T16:51:47.325Z,3.50
2017-11-14T16:54:53.285Z,3.50
2017-11-14T16:58:01.843Z,3.40
2017-11-14T17:01:07.022Z,3.40
2017-11-14T17:04:14.485Z,3.20
2017-11-14T17:07:20.111Z,3.20
2017-11-14T17:10:25.901Z,3.10
2017-11-14T17:13:31.573Z,3.10
2017-11-14T17:16:36.925Z,3.30
2017-11-14T17:19:43.130Z,3.40
2017-11-14T17:22:48.508Z,3.40
2017-11-14T17:25:54.797Z,3.30
2017-11-14T17:29:01.173Z,3.10
2017-11-14T17:32:07.698Z,2.80
2017-11-14T17:35:12.786Z,2.70
2017-11-14T17:38:18.533Z,2.60
2017-11-14T17:41:25.386Z,2.60
2017-11-14T17:44:30.327Z,2.60
2017-11-14T17:47:37.591Z,2.40
2017-11-14T17:50:44.191Z,2.30
2017-11-14T17:53:49.556Z,2.20
2017-11-14T17:56:55.213Z,2.20
2017-11-14T18:00:01.881Z,2.00
2017-11-14T18:03:07.554Z,2.00
2017-11-14T18:06:13.434Z,2.00
2017-11-14T18:09:18.432Z,1.90
2017-11-14T18:12:23.369Z,1.80
2017-11-14T18:15:38.140Z,1.80
2017-11-14T18:18:44.874Z,2.10
2017-11-14T18:21:52.820Z,2.20
2017-11-14T18:25:00.337Z,2.10
2017-11-14T18:28:05.797Z,2.10
2017-11-14T18:31:10.961Z,2.00
2017-11-14T18:34:19.136Z,2.00
2017-11-14T18:37:24.273Z,1.90
2017-11-14T18:40:29.776Z,1.80
2017-11-14T18:43:35.755Z,1.60
2017-11-14T18:46:40.543Z,1.60
2017-11-14T18:49:52.420Z,1.30
2017-11-14T18:52:57.398Z,1.30
2017-11-14T18:56:03.608Z,1.30
2017-11-14T18:59:10.090Z,1.40
2017-11-14T19:02:15.188Z,1.40
2017-11-14T19:05:21.925Z,1.50
2017-11-14T19:08:28.349Z,1.30
2017-11-14T19:11:34.022Z,1.20
2017-11-14T19:14:39.725Z,1.10
2017-11-14T19:17:45.147Z,1.10
2017-11-14T19:20:51.513Z,0.80
2017-11-14T19:23:57.257Z,0.90
2017-11-14T19:27:04.395Z,0.90
2017-11-14T19:30:10.625Z,0.90
2017-11-14T19:33:15.539Z,0.90
2017-11-14T19:36:20.426Z,1.00
2017-11-14T19:39:25.854Z,0.90
2017-11-14T19:42:30.680Z,0.90
2017-11-14T19:45:36.601Z,0.80
2017-11-14T19:48:42.897Z,0.90
2017-11-14T19:51:48.021Z,0.90
2017-11-14T19:54:53.049Z,1.00
2017-11-14T19:57:58.173Z,1.00
2017-11-14T20:01:03.642Z,1.20
2017-11-14T20:04:08.865Z,1.40
2017-11-14T20:07:14.211Z,1.40
2017-11-14T20:10:19.501Z,1.50
2017-11-14T20:13:25.285Z,1.60
2017-11-14T20:16:30.369Z,1.60
2017-11-14T20:19:36.193Z,1.70
2017-11-14T20:22:41.886Z,1.70
2017-11-14T20:25:46.709Z,1.70
2017-11-14T20:28:52.103Z,1.70
2017-11-14T20:31:57.129Z,1.80
2017-11-14T20:35:02.546Z,1.80
2017-11-14T20:38:07.393Z,1.60
2017-11-14T20:41:13.124Z,1.70
2017-11-14T20:44:17.821Z,1.70
2017-11-14T20:47:22.753Z,1.80
2017-11-14T20:50:28.138Z,1.80
2017-11-14T20:53:33.630Z,1.90
2017-11-14T20:56:39.341Z,1.90
2017-11-14T20:59:45.695Z,2.00
2017-11-14T21:02:51.245Z,2.00
2017-11-14T21:05:58.046Z,2.00
2017-11-14T21:09:03.695Z,2.10
2017-11-14T21:12:08.994Z,2.10
2017-11-14T21:15:14.592Z,2.20
2017-11-14T21:18:20.864Z,2.20
2017-11-14T21:21:27.868Z,2.20
2017-11-14T21:24:32.730Z,2.20
2017-11-14T21:27:38.993Z,2.30
2017-11-14T21:30:44.666Z,2.30
2017-11-14T21:33:49.902Z,2.30
2017-11-14T21:36:55.987Z,2.40
2017-11-14T21:40:01.613Z,2.40
2017-11-14T21:43:07.185Z,2.40
2017-11-14T21:46:12.442Z,2.40
2017-11-14T21:49:17.969Z,2.50
2017-11-14T21:52:23.817Z,2.40
2017-11-14T21:55:29.286Z,2.50
2017-11-14T21:58:34.625Z,2.50
2017-11-14T22:01:39.603Z,2.50
2017-11-14T22:04:45.931Z,2.40
2017-11-14T22:07:52.125Z,2.40
2017-11-14T22:10:58.324Z,2.50
2017-11-14T22:14:03.856Z,2.50
2017-11-14T22:17:09.647Z,2.40
2017-11-14T22:20:15.626Z,2.30
2017-11-14T22:23:20.337Z,2.30
2017-11-14T22:26:26.026Z,2.20
2017-11-14T22:29:31.169Z,2.20
2017-11-14T22:32:36.456Z,2.20
2017-11-14T22:35:41.512Z,2.20
2017-11-14T22:38:47.496Z,2.20
2017-11-14T22:41:53.111Z,2.00
2017-11-14T22:44:58.333Z,2.00
2017-11-14T22:48:03.553Z,2.10
2017-11-14T22:51:08.425Z,2.00
2017-11-14T22:54:14.926Z,2.00
2017-11-14T22:57:20.541Z,2.00
2017-11-14T23:00:26.853Z,2.00
2017-11-14T23:03:32.285Z,2.00
2017-11-14T23:06:38.653Z,2.00
2017-11-14T23:09:44.893Z,1.90
2017-11-14T23:12:50.569Z,1.90
2017-11-14T23:15:56.381Z,2.00
2017-11-14T23:19:01.709Z,2.00
2017-11-14T23:22:08.363Z,2.00
2017-11-14T23:25:13.772Z,2.00
2017-11-14T23:28:19.520Z,1.90
2017-11-14T23:31:24.368Z,1.90
2017-11-14T23:34:29.701Z,1.90
2017-11-14T23:37:35.453Z,1.90
2017-11-14T23:40:40.644Z,1.90
2017-11-14T23:43:46.203Z,1.90
2017-11-14T23:46:51.789Z,1.90
2017-11-14T23:49:57.777Z,1.90
2017-11-14T23:53:02.744Z,1.80
2017-11-14T23:56:08.104Z,1.80
2017-11-14T23:59:13.054Z,1.80
